createdAt,value
2023-05-08T00:02:10.066Z,2.88
2023-05-08T00:07:13.172Z,2.84
2023-05-08T00:12:16.185Z,2.80
2023-05-08T00:17:19.285Z,2.82
2023-05-08T00:22:22.495Z,2.88
2023-05-08T00:27:25.626Z,2.92
2023-05-08T00:32:29.291Z,2.92
2023-05-08T00:37:32.422Z,2.91
2023-05-08T00:42:35.320Z,2.87
2023-05-08T00:47:38.877Z,2.76
2023-05-08T00:52:41.900Z,2.63
2023-05-08T00:57:46.886Z,2.54
2023-05-08T01:02:50.266Z,2.50
2023-05-08T01:07:53.404Z,2.44
2023-05-08T01:13:11.906Z,2.39
2023-05-08T01:18:18.158Z,2.32
2023-05-08T01:23:39.696Z,2.24
2023-05-08T01:28:45.865Z,2.18
2023-05-08T01:33:57.038Z,2.14
2023-05-08T01:39:09.385Z,2.12
2023-05-08T01:44:24.574Z,2.05
2023-05-08T01:49:30.342Z,2.01
2023-05-08T01:54:36.622Z,2.01
2023-05-08T01:59:41.882Z,2.00
2023-05-08T02:04:45.082Z,2.01
2023-05-08T02:09:48.808Z,2.01
2023-05-08T02:14:53.555Z,1.99
2023-05-08T02:19:58.393Z,1.95
2023-05-08T02:25:01.501Z,1.90
2023-05-08T02:30:04.606Z,1.83
2023-05-08T02:35:08.582Z,1.76
2023-05-08T02:40:13.341Z,1.72
2023-05-08T02:45:17.004Z,1.64
2023-05-08T02:50:23.376Z,1.60
2023-05-08T02:55:46.551Z,1.59
2023-05-08T03:00:54.164Z,1.60
2023-05-08T03:05:58.289Z,1.62
2023-05-08T03:11:15.419Z,1.64
2023-05-08T03:16:21.321Z,1.65
2023-05-08T03:21:26.957Z,1.69
2023-05-08T03:26:30.283Z,1.73
2023-05-08T03:31:34.251Z,1.78
2023-05-08T03:36:37.400Z,1.86
2023-05-08T03:41:40.500Z,1.98
2023-05-08T03:46:45.025Z,2.13
2023-05-08T03:51:48.455Z,2.35
2023-05-08T03:56:54.668Z,3.00
2023-05-08T04:02:10.422Z,4.84
2023-05-08T04:07:19.400Z,7.28
2023-05-08T04:12:25.260Z,9.44
2023-05-08T04:17:35.065Z,11.38
2023-05-08T04:22:39.667Z,13.28
2023-05-08T04:27:44.016Z,14.63
2023-05-08T04:32:48.256Z,15.69
2023-05-08T04:37:51.541Z,16.62
2023-05-08T04:42:54.544Z,17.38
2023-05-08T04:47:57.607Z,18.19
2023-05-08T04:53:00.763Z,18.72
2023-05-08T04:58:03.862Z,19.63
2023-05-08T05:03:06.832Z,20.83
2023-05-08T05:08:09.871Z,21.92
2023-05-08T05:13:12.988Z,22.88
2023-05-08T05:18:16.188Z,23.52
2023-05-08T05:23:19.275Z,24.14
2023-05-08T05:28:22.281Z,24.81
2023-05-08T05:33:25.288Z,25.62
2023-05-08T05:38:28.187Z,26.49
2023-05-08T05:43:32.689Z,27.01
2023-05-08T05:48:36.139Z,27.68
2023-05-08T05:53:39.236Z,28.34
2023-05-08T05:58:45.212Z,29.14
2023-05-08T06:03:48.589Z,29.48
2023-05-08T06:08:51.935Z,30.19
2023-05-08T06:13:55.248Z,30.70
2023-05-08T06:18:58.361Z,31.33
2023-05-08T06:24:01.869Z,31.92
2023-05-08T06:29:04.872Z,32.65
2023-05-08T06:34:08.296Z,33.14
2023-05-08T06:39:11.305Z,33.82
2023-05-08T06:44:15.109Z,34.38
2023-05-08T06:49:18.122Z,34.65
2023-05-08T06:54:21.432Z,35.05
2023-05-08T06:59:24.636Z,35.12
2023-05-08T07:04:28.182Z,34.40
2023-05-08T07:09:32.177Z,34.40
2023-05-08T07:14:35.194Z,34.99
2023-05-08T07:19:38.743Z,35.29
2023-05-08T07:24:41.802Z,34.85
2023-05-08T07:29:44.805Z,34.90
2023-05-08T07:34:48.016Z,34.67
2023-05-08T07:39:51.844Z,34.47
2023-05-08T07:44:55.445Z,34.79
2023-05-08T07:49:58.564Z,35.18
2023-05-08T07:55:01.874Z,35.15
2023-05-08T08:00:08.949Z,35.26
2023-05-08T08:05:12.679Z,35.50
2023-05-08T08:10:15.989Z,34.43
2023-05-08T08:15:19.010Z,33.97
2023-05-08T08:20:22.540Z,34.49
2023-05-08T08:25:25.729Z,34.47
2023-05-08T08:30:28.943Z,35.02
2023-05-08T08:35:33.288Z,35.48
2023-05-08T08:40:40.666Z,36.32
2023-05-08T08:45:43.976Z,37.26
2023-05-08T08:50:49.143Z,34.97
2023-05-08T08:55:54.082Z,33.56
2023-05-08T09:00:58.619Z,34.08
2023-05-08T09:06:01.827Z,33.86
2023-05-08T09:11:05.145Z,33.05
2023-05-08T09:16:08.342Z,32.04
2023-05-08T09:21:11.860Z,31.71
2023-05-08T09:26:27.267Z,31.64
2023-05-08T09:31:37.082Z,30.91
2023-05-08T09:36:42.252Z,30.20
2023-05-08T09:41:57.465Z,29.57
2023-05-08T09:47:20.844Z,29.58
2023-05-08T09:52:24.459Z,29.72
2023-05-08T09:57:28.481Z,28.62
2023-05-08T10:02:31.848Z,27.40
2023-05-08T10:07:37.357Z,26.17
2023-05-08T10:12:41.815Z,25.08
2023-05-08T10:17:51.419Z,24.17
2023-05-08T10:22:57.122Z,23.39
2023-05-08T10:28:07.044Z,22.64
2023-05-08T10:33:11.240Z,21.49
2023-05-08T10:38:15.866Z,21.21
2023-05-08T10:43:19.581Z,21.22
2023-05-08T10:48:41.529Z,20.64
2023-05-08T10:53:49.673Z,19.73
2023-05-08T10:58:56.345Z,19.00
2023-05-08T11:03:59.497Z,18.95
2023-05-08T11:09:02.682Z,18.98
2023-05-08T11:14:08.932Z,19.19
2023-05-08T11:19:18.786Z,19.02
2023-05-08T11:24:32.855Z,19.11
2023-05-08T11:29:36.586Z,19.31
2023-05-08T11:34:42.971Z,19.46
2023-05-08T11:39:47.102Z,19.67
2023-05-08T11:44:50.805Z,19.52
2023-05-08T11:49:55.696Z,19.53
2023-05-08T11:55:01.535Z,19.75
2023-05-08T12:00:06.270Z,19.97
2023-05-08T12:05:09.952Z,20.00
2023-05-08T12:10:13.879Z,20.10
2023-05-08T12:15:17.437Z,20.33
2023-05-08T12:20:20.855Z,20.50
2023-05-08T12:25:26.102Z,20.46
2023-05-08T12:30:29.617Z,20.29
2023-05-08T12:35:33.132Z,20.16
2023-05-08T12:40:41.157Z,20.15
2023-05-08T12:45:44.193Z,20.09
2023-05-08T12:50:47.681Z,20.15
2023-05-08T12:55:53.090Z,20.27
2023-05-08T13:01:05.470Z,20.46
2023-05-08T13:06:19.206Z,20.62
2023-05-08T13:11:30.490Z,20.67
2023-05-08T13:16:42.077Z,20.69
2023-05-08T13:21:47.852Z,20.58
2023-05-08T13:26:50.875Z,20.43
2023-05-08T13:31:54.031Z,20.46
2023-05-08T13:36:58.734Z,20.43
2023-05-08T13:42:01.730Z,20.33
2023-05-08T13:47:04.836Z,20.23
2023-05-08T13:52:07.961Z,20.04
2023-05-08T13:57:11.558Z,19.93
2023-05-08T14:02:14.785Z,19.95
2023-05-08T14:07:18.812Z,19.84
2023-05-08T14:12:21.794Z,19.52
2023-05-08T14:17:25.036Z,19.42
2023-05-08T14:22:28.338Z,19.46
2023-05-08T14:27:31.327Z,19.54
2023-05-08T14:32:34.762Z,19.64
2023-05-08T14:37:37.941Z,19.72
2023-05-08T14:42:41.463Z,19.74
2023-05-08T14:47:44.710Z,19.72
2023-05-08T14:52:48.798Z,19.68
2023-05-08T14:57:51.905Z,19.66
2023-05-08T15:02:55.358Z,19.65
2023-05-08T15:07:58.422Z,19.65
2023-05-08T15:13:01.755Z,19.67
2023-05-08T15:18:05.340Z,19.64
2023-05-08T15:23:08.982Z,19.60
2023-05-08T15:28:11.970Z,19.53
2023-05-08T15:33:15.282Z,19.45
2023-05-08T15:38:18.294Z,19.34
2023-05-08T15:43:21.502Z,19.19
2023-05-08T15:48:24.717Z,19.07
2023-05-08T15:53:27.806Z,18.98
2023-05-08T15:58:30.813Z,18.90
2023-05-08T16:03:34.389Z,18.79
2023-05-08T16:08:37.947Z,18.64
2023-05-08T16:13:40.946Z,18.53
2023-05-08T16:18:44.364Z,18.43
2023-05-08T16:23:47.801Z,18.34
2023-05-08T16:28:51.389Z,18.24
2023-05-08T16:33:54.495Z,18.00
2023-05-08T16:38:57.706Z,17.73
2023-05-08T16:44:01.019Z,17.56
2023-05-08T16:49:04.120Z,17.42
2023-05-08T16:54:07.232Z,17.33
2023-05-08T16:59:10.341Z,17.26
2023-05-08T17:04:13.533Z,17.16
2023-05-08T17:09:18.592Z,17.07
2023-05-08T17:14:21.808Z,16.98
2023-05-08T17:19:25.623Z,16.87
2023-05-08T17:24:29.977Z,16.76
2023-05-08T17:29:33.686Z,16.61
2023-05-08T17:34:37.738Z,16.47
2023-05-08T17:39:40.909Z,16.32
2023-05-08T17:44:44.046Z,16.17
2023-05-08T17:49:47.287Z,15.99
2023-05-08T17:54:51.377Z,15.77
2023-05-08T17:59:54.457Z,15.51
2023-05-08T18:04:58.291Z,15.19
2023-05-08T18:10:01.381Z,14.86
2023-05-08T18:15:05.653Z,14.55
2023-05-08T18:20:09.670Z,14.23
2023-05-08T18:25:13.379Z,13.87
2023-05-08T18:30:17.396Z,13.52
2023-05-08T18:35:21.952Z,13.15
2023-05-08T18:40:25.358Z,12.76
2023-05-08T18:45:29.066Z,12.41
2023-05-08T18:50:32.270Z,12.12
2023-05-08T18:55:36.001Z,11.90
2023-05-08T19:00:39.039Z,11.73
2023-05-08T19:05:42.227Z,11.54
2023-05-08T19:10:46.143Z,11.39
2023-05-08T19:15:50.310Z,11.42
2023-05-08T19:20:54.280Z,11.32
2023-05-08T19:25:57.330Z,11.13
2023-05-08T19:31:00.906Z,10.95
2023-05-08T19:36:04.215Z,10.69
2023-05-08T19:41:08.039Z,10.47
2023-05-08T19:46:10.998Z,10.30
2023-05-08T19:51:16.620Z,10.22
2023-05-08T19:56:19.714Z,10.21
2023-05-08T20:01:22.972Z,10.26
2023-05-08T20:06:26.604Z,10.31
2023-05-08T20:11:30.059Z,10.31
2023-05-08T20:16:34.026Z,10.30
2023-05-08T20:21:37.178Z,10.25
2023-05-08T20:26:41.747Z,10.18
2023-05-08T20:31:44.788Z,10.17
2023-05-08T20:36:48.038Z,10.14
2023-05-08T20:41:52.228Z,10.13
2023-05-08T20:46:57.058Z,10.13
2023-05-08T20:52:01.536Z,10.08
2023-05-08T20:57:05.198Z,9.97
2023-05-08T21:02:08.736Z,9.75
2023-05-08T21:07:11.924Z,9.43
2023-05-08T21:12:15.236Z,9.11
2023-05-08T21:17:18.551Z,8.80
2023-05-08T21:22:22.270Z,8.59
2023-05-08T21:27:27.324Z,8.50
2023-05-08T21:32:30.452Z,8.45
2023-05-08T21:37:33.652Z,8.40
2023-05-08T21:42:37.166Z,8.28
2023-05-08T21:47:40.698Z,8.12
2023-05-08T21:52:45.523Z,7.94
2023-05-08T21:57:48.738Z,7.73
2023-05-08T22:02:52.151Z,7.52
2023-05-08T22:07:55.457Z,7.36
2023-05-08T22:12:58.615Z,7.23
2023-05-08T22:18:03.127Z,7.10
2023-05-08T22:23:07.242Z,6.97
2023-05-08T22:28:10.953Z,6.85
2023-05-08T22:33:14.163Z,6.72
2023-05-08T22:38:17.372Z,6.59
2023-05-08T22:43:20.475Z,6.47
2023-05-08T22:48:23.371Z,6.35
2023-05-08T22:53:26.374Z,6.24
2023-05-08T22:58:29.476Z,6.09
2023-05-08T23:03:32.483Z,5.95
2023-05-08T23:08:35.397Z,5.82
2023-05-08T23:13:38.282Z,5.71
2023-05-08T23:18:41.488Z,5.60
2023-05-08T23:23:44.695Z,5.51
2023-05-08T23:28:47.601Z,5.52
2023-05-08T23:33:50.599Z,5.56
2023-05-08T23:38:53.910Z,5.50
2023-05-08T23:43:57.324Z,5.38
2023-05-08T23:49:00.332Z,5.26
2023-05-08T23:54:03.552Z,5.13
2023-05-08T23:59:06.853Z,5.04
